createdAt,value
2023-04-11T00:00:55.922Z,3.70
2023-04-11T00:03:23.177Z,3.80
2023-04-11T00:05:50.516Z,3.70
2023-04-11T00:08:17.446Z,3.80
2023-04-11T00:10:45.850Z,3.80
2023-04-11T00:13:12.970Z,3.80
2023-04-11T00:15:39.941Z,3.70
2023-04-11T00:18:07.402Z,3.70
2023-04-11T00:20:34.571Z,3.60
2023-04-11T00:23:01.712Z,3.60
2023-04-11T00:25:30.297Z,3.50
2023-04-11T00:27:57.344Z,3.60
2023-04-11T00:30:24.309Z,3.60
2023-04-11T00:32:51.416Z,3.60
2023-04-11T00:35:18.408Z,3.60
2023-04-11T00:37:46.561Z,3.60
2023-04-11T00:40:18.716Z,3.60
2023-04-11T00:42:45.741Z,3.60
2023-04-11T00:45:13.049Z,3.60
2023-04-11T00:47:41.317Z,3.50
2023-04-11T00:50:09.214Z,3.50
2023-04-11T00:52:38.443Z,3.50
2023-04-11T00:55:07.552Z,3.40
2023-04-11T00:57:34.832Z,3.40
2023-04-11T01:00:03.827Z,3.30
2023-04-11T01:02:30.997Z,3.40
2023-04-11T01:04:59.280Z,3.50
2023-04-11T01:07:26.529Z,3.50
2023-04-11T01:09:54.490Z,3.50
2023-04-11T01:12:21.987Z,3.50
2023-04-11T01:14:49.524Z,3.50
2023-04-11T01:17:16.812Z,3.50
2023-04-11T01:19:43.867Z,3.50
2023-04-11T01:22:14.802Z,3.50
2023-04-11T01:24:41.802Z,3.50
2023-04-11T01:27:08.834Z,3.40
2023-04-11T01:29:36.104Z,3.50
2023-04-11T01:32:03.038Z,3.40
2023-04-11T01:34:31.746Z,3.40
2023-04-11T01:36:58.968Z,3.40
2023-04-11T01:39:25.845Z,3.50
2023-04-11T01:41:54.412Z,3.50
2023-04-11T01:44:21.408Z,3.60
2023-04-11T01:46:48.575Z,3.40
2023-04-11T01:49:16.158Z,3.40
2023-04-11T01:51:43.315Z,3.40
2023-04-11T01:54:10.408Z,3.40
2023-04-11T01:56:37.338Z,3.40
2023-04-11T01:59:04.556Z,3.40
2023-04-11T02:01:32.170Z,3.40
2023-04-11T02:03:59.362Z,3.30
2023-04-11T02:06:27.589Z,3.10
2023-04-11T02:08:54.915Z,3.10
2023-04-11T02:11:22.146Z,3.10
2023-04-11T02:13:49.277Z,3.10
2023-04-11T02:16:18.169Z,3.00
2023-04-11T02:18:46.427Z,3.00
2023-04-11T02:21:13.482Z,2.90
2023-04-11T02:23:40.454Z,2.90
2023-04-11T02:26:07.415Z,2.90
2023-04-11T02:28:34.438Z,2.90
2023-04-11T02:31:03.435Z,2.80
2023-04-11T02:33:30.414Z,2.70
2023-04-11T02:35:57.409Z,2.70
2023-04-11T02:38:24.501Z,2.80
2023-04-11T02:40:51.483Z,2.80
2023-04-11T02:43:18.418Z,2.90
2023-04-11T02:45:45.338Z,2.90
2023-04-11T02:48:12.217Z,2.80
2023-04-11T02:50:41.155Z,2.80
2023-04-11T02:53:08.233Z,2.70
2023-04-11T02:55:35.270Z,2.80
2023-04-11T02:58:02.412Z,2.70
2023-04-11T03:00:29.408Z,2.60
2023-04-11T03:02:57.138Z,2.70
2023-04-11T03:05:24.339Z,2.80
2023-04-11T03:07:51.364Z,2.90
2023-04-11T03:10:18.411Z,2.80
2023-04-11T03:12:45.430Z,3.10
2023-04-11T03:15:15.643Z,3.20
2023-04-11T03:17:42.736Z,3.10
2023-04-11T03:20:11.897Z,2.90
2023-04-11T03:22:39.189Z,2.90
2023-04-11T03:25:07.398Z,2.90
2023-04-11T03:27:34.435Z,2.80
2023-04-11T03:30:01.464Z,3.00
2023-04-11T03:32:28.583Z,3.10
2023-04-11T03:34:57.565Z,3.10
2023-04-11T03:37:24.448Z,3.00
2023-04-11T03:39:51.334Z,2.90
2023-04-11T03:42:18.302Z,2.80
2023-04-11T03:44:45.238Z,2.70
2023-04-11T03:47:12.136Z,2.70
2023-04-11T03:49:39.159Z,2.70
2023-04-11T03:52:07.675Z,2.80
2023-04-11T03:54:34.615Z,3.00
2023-04-11T03:57:01.891Z,3.10
2023-04-11T03:59:29.724Z,3.10
2023-04-11T04:01:56.754Z,3.10
2023-04-11T04:04:23.768Z,3.10
2023-04-11T04:06:50.743Z,3.10
2023-04-11T04:09:18.371Z,3.10
2023-04-11T04:11:45.314Z,3.10
2023-04-11T04:14:12.170Z,3.20
2023-04-11T04:16:39.168Z,3.20
2023-04-11T04:19:06.142Z,3.40
2023-04-11T04:21:33.167Z,3.50
2023-04-11T04:24:03.696Z,3.60
2023-04-11T04:26:31.459Z,3.60
2023-04-11T04:29:04.541Z,3.60
2023-04-11T04:31:34.837Z,3.70
2023-04-11T04:34:09.788Z,3.80
2023-04-11T04:36:47.964Z,3.80
2023-04-11T04:39:19.129Z,4.00
2023-04-11T04:41:48.764Z,4.20
2023-04-11T04:44:18.532Z,4.40
2023-04-11T04:46:45.529Z,4.50
2023-04-11T04:49:12.464Z,4.60
2023-04-11T04:51:40.693Z,4.70
2023-04-11T04:54:07.591Z,4.80
2023-04-11T04:56:34.622Z,5.00
2023-04-11T04:59:01.632Z,5.10
2023-04-11T05:01:28.643Z,5.30
2023-04-11T05:04:00.742Z,5.40
2023-04-11T05:06:29.687Z,5.60
2023-04-11T05:08:59.164Z,5.80
2023-04-11T05:11:27.307Z,5.90
2023-04-11T05:13:54.775Z,6.10
2023-04-11T05:16:22.468Z,6.30
2023-04-11T05:18:49.721Z,6.50
2023-04-11T05:21:16.678Z,6.70
2023-04-11T05:23:43.644Z,7.00
2023-04-11T05:26:11.405Z,7.10
2023-04-11T05:28:38.429Z,7.30
2023-04-11T05:31:05.992Z,7.60
2023-04-11T05:33:33.149Z,7.70
2023-04-11T05:36:00.788Z,7.90
2023-04-11T05:38:27.682Z,8.10
2023-04-11T05:40:54.666Z,8.30
2023-04-11T05:43:21.544Z,8.40
2023-04-11T05:45:48.888Z,8.40
2023-04-11T05:48:16.328Z,8.50
2023-04-11T05:50:43.378Z,8.70
2023-04-11T05:53:10.343Z,8.80
2023-04-11T05:55:37.793Z,8.90
2023-04-11T05:58:05.235Z,9.00
2023-04-11T06:00:32.609Z,8.90
2023-04-11T06:03:00.546Z,9.10
2023-04-11T06:05:31.616Z,9.10
2023-04-11T06:07:59.702Z,9.10
2023-04-11T06:10:27.481Z,9.30
2023-04-11T06:12:54.751Z,9.50
2023-04-11T06:15:23.276Z,9.60
2023-04-11T06:17:50.796Z,9.70
2023-04-11T06:20:17.926Z,10.00
2023-04-11T06:22:46.937Z,10.10
2023-04-11T06:25:14.463Z,10.40
2023-04-11T06:27:41.475Z,10.40
2023-04-11T06:30:09.517Z,10.60
2023-04-11T06:32:36.639Z,10.80
2023-04-11T06:35:03.730Z,11.00
2023-04-11T06:37:30.738Z,11.10
2023-04-11T06:40:00.048Z,11.30
2023-04-11T06:42:27.554Z,11.20
2023-04-11T06:44:54.449Z,11.30
2023-04-11T06:47:21.445Z,11.20
2023-04-11T06:49:48.511Z,11.10
2023-04-11T06:52:15.580Z,11.10
2023-04-11T06:54:42.562Z,11.00
2023-04-11T06:57:10.727Z,11.10
2023-04-11T06:59:37.826Z,11.10
2023-04-11T07:02:04.794Z,11.20
2023-04-11T07:04:32.021Z,11.30
2023-04-11T07:06:59.069Z,11.30
2023-04-11T07:09:26.164Z,11.50
2023-04-11T07:11:53.010Z,11.50
2023-04-11T07:14:20.044Z,11.60
2023-04-11T07:16:47.088Z,11.60
2023-04-11T07:19:14.217Z,11.50
2023-04-11T07:21:41.814Z,11.50
2023-04-11T07:24:10.674Z,11.50
2023-04-11T07:26:38.960Z,11.50
2023-04-11T07:29:09.544Z,11.60
2023-04-11T07:31:38.031Z,11.70
2023-04-11T07:34:04.973Z,11.90
2023-04-11T07:36:31.979Z,11.90
2023-04-11T07:39:00.177Z,12.10
2023-04-11T07:41:27.069Z,12.20
2023-04-11T07:43:54.101Z,12.30
2023-04-11T07:46:21.252Z,12.50
2023-04-11T07:48:48.153Z,12.70
2023-04-11T07:51:15.184Z,12.60
2023-04-11T07:53:42.108Z,12.90
2023-04-11T07:56:09.508Z,13.00
2023-04-11T07:58:36.450Z,13.10
2023-04-11T08:01:03.988Z,13.40
2023-04-11T08:03:31.469Z,13.50
2023-04-11T08:05:58.614Z,13.60
2023-04-11T08:08:26.203Z,13.70
2023-04-11T08:10:53.135Z,13.80
2023-04-11T08:13:20.112Z,13.90
2023-04-11T08:15:47.137Z,14.10
2023-04-11T08:18:14.101Z,14.10
2023-04-11T08:20:41.047Z,14.40
2023-04-11T08:23:08.908Z,14.40
2023-04-11T08:25:36.932Z,14.50
2023-04-11T08:28:05.288Z,14.70
2023-04-11T08:30:32.442Z,14.90
2023-04-11T08:32:59.737Z,15.10
2023-04-11T08:35:26.802Z,15.30
2023-04-11T08:37:54.827Z,15.50
2023-04-11T08:40:22.035Z,15.40
2023-04-11T08:42:49.385Z,15.40
2023-04-11T08:45:16.449Z,15.50
2023-04-11T08:47:45.431Z,15.70
2023-04-11T08:50:13.014Z,15.80
2023-04-11T08:52:40.238Z,16.10
2023-04-11T08:55:07.468Z,16.20
2023-04-11T08:57:34.953Z,15.90
2023-04-11T09:00:19.146Z,15.90
2023-04-11T09:03:03.895Z,15.60
2023-04-11T09:05:31.812Z,15.50
2023-04-11T09:08:09.445Z,15.40
2023-04-11T09:10:38.147Z,15.30
2023-04-11T09:13:27.451Z,15.40
2023-04-11T09:16:20.786Z,15.60
2023-04-11T09:18:47.905Z,15.70
2023-04-11T09:21:16.198Z,15.80
2023-04-11T09:23:43.404Z,16.00
2023-04-11T09:26:12.829Z,16.10
2023-04-11T09:28:44.918Z,16.00
2023-04-11T09:31:14.824Z,16.00
2023-04-11T09:33:56.631Z,16.40
2023-04-11T09:36:25.560Z,16.30
2023-04-11T09:38:52.947Z,16.50
2023-04-11T09:41:34.964Z,16.50
2023-04-11T09:44:02.546Z,16.50
2023-04-11T09:46:30.085Z,16.60
2023-04-11T09:48:57.444Z,16.80
2023-04-11T09:51:35.810Z,17.10
2023-04-11T09:54:05.208Z,17.20
2023-04-11T09:56:34.954Z,17.60
2023-04-11T09:59:03.911Z,17.50
2023-04-11T10:01:31.179Z,17.30
2023-04-11T10:03:58.516Z,17.10
2023-04-11T10:06:34.247Z,17.00
2023-04-11T10:09:13.477Z,17.10
2023-04-11T10:11:44.937Z,16.90
2023-04-11T10:14:38.360Z,16.90
2023-04-11T10:17:20.715Z,16.70
2023-04-11T10:19:49.677Z,16.80
2023-04-11T10:22:46.737Z,16.80
2023-04-11T10:25:18.478Z,16.90
2023-04-11T10:27:50.579Z,16.90
2023-04-11T10:30:17.691Z,17.10
2023-04-11T10:33:16.884Z,17.10
2023-04-11T10:36:10.825Z,17.00
2023-04-11T10:38:43.864Z,17.20
2023-04-11T10:41:22.886Z,17.60
2023-04-11T10:43:50.299Z,17.70
2023-04-11T10:46:21.552Z,17.80
2023-04-11T10:49:08.900Z,17.70
2023-04-11T10:51:35.944Z,17.40
2023-04-11T10:54:03.303Z,17.20
2023-04-11T10:56:50.702Z,17.40
2023-04-11T10:59:32.923Z,17.50
2023-04-11T11:02:04.265Z,17.70
2023-04-11T11:04:32.362Z,17.60
2023-04-11T11:07:01.572Z,17.50
2023-04-11T11:09:29.098Z,17.60
2023-04-11T11:12:09.467Z,17.40
2023-04-11T11:14:37.478Z,17.40
2023-04-11T11:17:04.885Z,17.20
2023-04-11T11:19:32.227Z,17.30
2023-04-11T11:22:03.584Z,17.20
2023-04-11T11:24:31.165Z,17.10
2023-04-11T11:26:58.876Z,17.40
2023-04-11T11:29:38.066Z,17.30
2023-04-11T11:32:06.546Z,17.30
2023-04-11T11:34:35.184Z,17.10
2023-04-11T11:37:06.905Z,17.10
2023-04-11T11:39:35.533Z,17.40
2023-04-11T11:42:03.588Z,17.60
2023-04-11T11:44:31.467Z,17.70
2023-04-11T11:47:09.422Z,17.70
2023-04-11T11:49:53.366Z,18.00
2023-04-11T11:52:33.841Z,17.80
2023-04-11T11:55:08.081Z,17.60
2023-04-11T11:57:50.353Z,17.60
2023-04-11T12:00:28.132Z,17.60
2023-04-11T12:02:56.685Z,17.40
2023-04-11T12:05:30.780Z,17.10
2023-04-11T12:08:00.132Z,17.30
2023-04-11T12:10:39.592Z,17.50
2023-04-11T12:13:14.944Z,17.60
2023-04-11T12:15:44.574Z,17.70
2023-04-11T12:18:11.925Z,18.00
2023-04-11T12:20:38.899Z,18.00
2023-04-11T12:23:05.856Z,18.30
2023-04-11T12:25:32.849Z,18.10
2023-04-11T12:27:59.897Z,18.10
2023-04-11T12:30:28.259Z,18.00
2023-04-11T12:32:56.966Z,18.20
2023-04-11T12:35:24.013Z,18.20
2023-04-11T12:37:51.410Z,18.30
2023-04-11T12:40:18.434Z,18.30
2023-04-11T12:42:56.247Z,18.40
2023-04-11T12:45:24.352Z,18.50
2023-04-11T12:47:51.460Z,18.50
2023-04-11T12:50:18.703Z,18.50
2023-04-11T12:52:46.044Z,18.40
2023-04-11T12:55:13.831Z,18.30
2023-04-11T12:57:41.608Z,18.40
2023-04-11T13:00:10.973Z,18.40
2023-04-11T13:02:42.773Z,18.20
2023-04-11T13:05:11.978Z,18.20
2023-04-11T13:07:39.331Z,18.10
2023-04-11T13:10:09.773Z,17.90
2023-04-11T13:12:41.631Z,17.80
2023-04-11T13:15:11.855Z,18.00
2023-04-11T13:17:39.164Z,18.00
2023-04-11T13:20:10.805Z,18.10
2023-04-11T13:22:38.947Z,18.20
2023-04-11T13:25:07.180Z,17.70
2023-04-11T13:27:35.226Z,17.60
2023-04-11T13:30:04.913Z,17.50
2023-04-11T13:32:32.386Z,17.40
2023-04-11T13:34:59.502Z,17.30
2023-04-11T13:37:26.610Z,17.30
2023-04-11T13:39:53.628Z,17.30
2023-04-11T13:42:21.899Z,17.50
2023-04-11T13:44:49.198Z,17.80
2023-04-11T13:47:16.335Z,17.70
2023-04-11T13:49:43.334Z,17.70
2023-04-11T13:52:10.232Z,17.30
2023-04-11T13:54:39.103Z,17.10
2023-04-11T13:57:07.989Z,17.30
2023-04-11T13:59:35.406Z,17.20
2023-04-11T14:02:02.815Z,17.30
2023-04-11T14:04:29.937Z,17.10
2023-04-11T14:06:57.383Z,17.00
2023-04-11T14:09:24.390Z,17.00
2023-04-11T14:11:51.455Z,16.90
2023-04-11T14:14:18.415Z,16.80
2023-04-11T14:16:45.532Z,16.70
2023-04-11T14:19:12.528Z,16.70
2023-04-11T14:21:39.676Z,16.50
2023-04-11T14:24:06.801Z,16.50
2023-04-11T14:26:33.687Z,16.50
2023-04-11T14:29:01.111Z,16.40
2023-04-11T14:31:28.541Z,16.30
2023-04-11T14:33:55.884Z,16.20
2023-04-11T14:36:23.134Z,16.00
2023-04-11T14:38:50.247Z,15.90
2023-04-11T14:41:17.877Z,15.80
2023-04-11T14:43:44.914Z,15.70
2023-04-11T14:46:11.992Z,15.70
2023-04-11T14:48:38.987Z,15.70
2023-04-11T14:51:06.142Z,15.70
2023-04-11T14:53:33.359Z,15.70
2023-04-11T14:56:04.144Z,15.70
2023-04-11T14:58:31.408Z,15.70
2023-04-11T15:00:58.510Z,15.40
2023-04-11T15:03:26.089Z,15.30
2023-04-11T15:05:53.173Z,15.10
2023-04-11T15:08:20.222Z,15.20
2023-04-11T15:10:49.666Z,15.20
2023-04-11T15:13:16.979Z,15.20
2023-04-11T15:15:43.932Z,15.30
2023-04-11T15:18:21.453Z,15.20
2023-04-11T15:20:48.851Z,15.20
2023-04-11T15:23:15.930Z,15.20
2023-04-11T15:25:42.918Z,15.40
2023-04-11T15:28:09.885Z,15.50
2023-04-11T15:30:46.397Z,15.50
2023-04-11T15:33:13.689Z,15.50
2023-04-11T15:35:44.237Z,15.50
2023-04-11T15:38:11.772Z,15.50
2023-04-11T15:40:38.781Z,15.50
2023-04-11T15:43:06.689Z,15.40
2023-04-11T15:45:39.682Z,15.40
2023-04-11T15:48:07.164Z,15.30
2023-04-11T15:50:34.205Z,15.20
2023-04-11T15:53:01.188Z,15.20
2023-04-11T15:55:28.760Z,15.20
2023-04-11T15:57:56.630Z,15.20
2023-04-11T16:00:23.819Z,15.20
2023-04-11T16:02:51.362Z,15.20
2023-04-11T16:05:20.980Z,15.20
2023-04-11T16:07:48.189Z,15.20
2023-04-11T16:10:15.604Z,15.20
2023-04-11T16:12:42.509Z,15.20
2023-04-11T16:15:09.694Z,15.20
2023-04-11T16:17:36.659Z,15.10
2023-04-11T16:20:08.833Z,15.10
2023-04-11T16:22:37.646Z,15.10
2023-04-11T16:25:06.142Z,15.00
2023-04-11T16:27:33.354Z,15.00
2023-04-11T16:30:01.982Z,15.00
2023-04-11T16:32:29.170Z,15.00
2023-04-11T16:34:57.885Z,14.90
2023-04-11T16:37:25.171Z,14.90
2023-04-11T16:39:52.525Z,14.90
2023-04-11T16:42:19.786Z,14.80
2023-04-11T16:44:46.776Z,14.70
2023-04-11T16:47:13.731Z,14.70
2023-04-11T16:49:40.905Z,14.70
2023-04-11T16:52:07.900Z,14.60
2023-04-11T16:54:34.961Z,14.50
2023-04-11T16:57:01.918Z,14.50
2023-04-11T16:59:28.939Z,13.90
2023-04-11T17:01:56.220Z,13.40
2023-04-11T17:04:23.316Z,13.10
2023-04-11T17:06:50.666Z,13.10
2023-04-11T17:09:17.658Z,12.90
2023-04-11T17:11:44.776Z,12.70
2023-04-11T17:14:11.696Z,12.60
2023-04-11T17:16:38.785Z,12.40
2023-04-11T17:19:06.327Z,12.00
2023-04-11T17:21:33.221Z,11.40
2023-04-11T17:24:00.444Z,11.10
2023-04-11T17:26:27.663Z,10.80
2023-04-11T17:28:54.636Z,10.70
2023-04-11T17:31:22.101Z,10.50
2023-04-11T17:33:49.166Z,10.40
2023-04-11T17:36:16.100Z,10.20
2023-04-11T17:38:43.566Z,10.00
2023-04-11T17:41:15.176Z,9.90
2023-04-11T17:43:43.461Z,9.90
2023-04-11T17:46:10.534Z,9.80
2023-04-11T17:48:37.905Z,9.70
2023-04-11T17:51:08.485Z,9.40
2023-04-11T17:57:22.972Z,9.10
2023-04-11T17:59:51.491Z,9.00
2023-04-11T18:02:18.812Z,8.80
2023-04-11T18:04:46.503Z,8.70
2023-04-11T18:11:01.086Z,8.60
2023-04-11T18:13:28.437Z,8.50
2023-04-11T18:15:55.484Z,8.40
2023-04-11T18:18:22.512Z,8.30
2023-04-11T18:20:49.537Z,8.30
2023-04-11T18:23:16.480Z,8.30
2023-04-11T18:25:44.676Z,8.30
2023-04-11T18:28:11.826Z,8.20
2023-04-11T18:30:38.889Z,8.10
2023-04-11T18:33:05.946Z,8.10
2023-04-11T18:35:33.019Z,8.10
2023-04-11T18:38:00.406Z,8.00
2023-04-11T18:40:28.095Z,7.90
2023-04-11T18:42:56.433Z,7.90
2023-04-11T18:45:25.897Z,7.90
2023-04-11T18:47:53.586Z,7.90
2023-04-11T18:50:21.721Z,7.90
2023-04-11T18:52:53.549Z,8.00
2023-04-11T18:55:23.193Z,7.90
2023-04-11T18:57:53.910Z,7.80
2023-04-11T19:00:24.025Z,7.80
2023-04-11T19:02:51.522Z,7.80
2023-04-11T19:05:19.248Z,7.80
2023-04-11T19:07:46.694Z,7.80
2023-04-11T19:10:14.417Z,7.70
2023-04-11T19:12:41.408Z,7.70
2023-04-11T19:15:09.569Z,7.70
2023-04-11T19:17:38.635Z,7.70
2023-04-11T19:20:13.237Z,7.70
2023-04-11T19:22:41.210Z,7.70
2023-04-11T19:25:12.216Z,7.50
2023-04-11T19:27:42.573Z,7.50
2023-04-11T19:30:11.432Z,7.50
2023-04-11T19:32:40.964Z,7.40
2023-04-11T19:35:10.680Z,7.40
2023-04-11T19:37:38.154Z,7.40
2023-04-11T19:40:15.399Z,7.50
2023-04-11T19:42:43.239Z,7.40
2023-04-11T19:45:11.646Z,7.40
2023-04-11T19:47:40.443Z,7.50
2023-04-11T19:50:12.122Z,7.50
2023-04-11T19:52:39.886Z,7.50
2023-04-11T19:55:07.825Z,7.40
2023-04-11T19:57:35.167Z,7.40
2023-04-11T20:00:02.415Z,7.40
2023-04-11T20:02:29.475Z,7.40
2023-04-11T20:04:56.986Z,7.40
2023-04-11T20:07:23.968Z,7.30
2023-04-11T20:09:51.792Z,7.30
2023-04-11T20:12:19.302Z,7.30
2023-04-11T20:14:46.259Z,7.20
2023-04-11T20:17:13.229Z,7.30
2023-04-11T20:19:41.981Z,7.20
2023-04-11T20:22:11.457Z,7.30
2023-04-11T20:24:38.447Z,7.20
2023-04-11T20:27:05.720Z,7.30
2023-04-11T20:29:33.015Z,7.20
2023-04-11T20:32:00.198Z,7.10
2023-04-11T20:34:27.167Z,7.10
2023-04-11T20:36:54.140Z,7.10
2023-04-11T20:39:21.073Z,7.10
2023-04-11T20:41:49.868Z,7.10
2023-04-11T20:44:21.438Z,7.10
2023-04-11T20:46:48.362Z,7.10
2023-04-11T20:49:17.784Z,7.10
2023-04-11T20:51:45.095Z,7.10
2023-04-11T20:54:12.577Z,7.10
2023-04-11T20:56:39.587Z,7.10
2023-04-11T20:59:07.369Z,7.10
2023-04-11T21:01:34.425Z,7.10
2023-04-11T21:04:04.794Z,7.10
2023-04-11T21:06:32.178Z,7.10
2023-04-11T21:09:00.534Z,7.10
2023-04-11T21:11:27.505Z,7.10
2023-04-11T21:13:54.870Z,7.10
2023-04-11T21:16:22.246Z,7.10
2023-04-11T21:18:49.319Z,7.10
2023-04-11T21:25:04.619Z,7.10
2023-04-11T21:27:31.537Z,7.10
2023-04-11T21:29:58.505Z,7.10
2023-04-11T21:32:25.668Z,7.10
2023-04-11T21:34:52.904Z,7.10
2023-04-11T21:37:19.952Z,7.10
2023-04-11T21:39:46.849Z,7.10
2023-04-11T21:42:13.925Z,7.10
2023-04-11T21:44:40.952Z,7.10
2023-04-11T21:47:07.839Z,7.10
2023-04-11T21:49:34.793Z,7.10
2023-04-11T21:52:01.726Z,7.00
2023-04-11T21:54:28.675Z,7.10
2023-04-11T21:56:57.350Z,7.10
2023-04-11T21:59:24.368Z,7.10
2023-04-11T22:01:51.695Z,7.10
2023-04-11T22:04:18.875Z,7.00
2023-04-11T22:06:48.820Z,7.10
2023-04-11T22:09:18.284Z,7.00
2023-04-11T22:11:45.284Z,7.00
2023-04-11T22:14:16.425Z,7.10
2023-04-11T22:16:49.488Z,7.10
2023-04-11T22:19:20.913Z,7.00
2023-04-11T22:21:48.818Z,7.00
2023-04-11T22:24:16.007Z,7.10
2023-04-11T22:26:48.701Z,7.10
2023-04-11T22:29:18.961Z,7.10
2023-04-11T22:31:47.730Z,7.00
2023-04-11T22:34:14.777Z,7.00
2023-04-11T22:36:41.708Z,7.00
2023-04-11T22:39:09.528Z,7.00
2023-04-11T22:41:39.129Z,7.00
2023-04-11T22:44:06.666Z,7.00
2023-04-11T22:46:39.096Z,7.00
2023-04-11T22:49:06.745Z,7.00
2023-04-11T22:51:33.781Z,7.10
2023-04-11T22:54:01.260Z,7.10
2023-04-11T22:56:28.362Z,7.10
2023-04-11T22:58:55.503Z,7.00
2023-04-11T23:01:22.623Z,7.00
2023-04-11T23:03:49.886Z,7.00
2023-04-11T23:06:17.459Z,7.00
2023-04-11T23:08:44.367Z,7.10
2023-04-11T23:11:11.607Z,7.00
2023-04-11T23:13:38.561Z,7.00
2023-04-11T23:16:06.996Z,7.10
2023-04-11T23:18:33.949Z,7.00
2023-04-11T23:21:02.043Z,7.00
2023-04-11T23:23:29.197Z,7.00
2023-04-11T23:25:56.557Z,7.00
2023-04-11T23:28:24.347Z,7.00
2023-04-11T23:30:51.371Z,7.00
2023-04-11T23:33:18.508Z,7.10
2023-04-11T23:35:45.507Z,7.00
2023-04-11T23:38:12.487Z,7.00
2023-04-11T23:40:39.496Z,7.00
2023-04-11T23:43:06.445Z,7.00
2023-04-11T23:45:33.729Z,7.00
2023-04-11T23:48:00.734Z,7.00
2023-04-11T23:50:27.785Z,6.90
2023-04-11T23:52:54.923Z,7.00
2023-04-11T23:55:22.097Z,7.00
2023-04-11T23:57:49.753Z,7.00
